sensor_id;sensor_type;location;lat;lon;timestamp;P1;durP1;ratioP1;P2;durP2;ratioP2
61291;SDS011;47165;42.664;23.368;2024-03-06T00:01:42;13.13;;;6.50;;
61291;SDS011;47165;42.664;23.368;2024-03-06T00:04:08;16.67;;;7.43;;
61291;SDS011;47165;42.664;23.368;2024-03-06T00:06:33;10.10;;;4.75;;
61291;SDS011;47165;42.664;23.368;2024-03-06T00:08:59;18.30;;;8.88;;
61291;SDS011;47165;42.664;23.368;2024-03-06T00:11:25;9.02;;;4.40;;
61291;SDS011;47165;42.664;23.368;2024-03-06T00:13:50;9.32;;;4.75;;
61291;SDS011;47165;42.664;23.368;2024-03-06T00:16:16;5.72;;;3.53;;
61291;SDS011;47165;42.664;23.368;2024-03-06T00:18:41;10.82;;;5.07;;
61291;SDS011;47165;42.664;23.368;2024-03-06T00:21:07;11.30;;;4.97;;
61291;SDS011;47165;42.664;23.368;2024-03-06T00:23:32;12.85;;;5.97;;
61291;SDS011;47165;42.664;23.368;2024-03-06T00:25:58;13.57;;;5.50;;
61291;SDS011;47165;42.664;23.368;2024-03-06T00:28:23;8.77;;;5.07;;
61291;SDS011;47165;42.664;23.368;2024-03-06T00:30:49;5.20;;;2.20;;
61291;SDS011;47165;42.664;23.368;2024-03-06T00:33:14;11.25;;;4.60;;
61291;SDS011;47165;42.664;23.368;2024-03-06T00:35:40;5.20;;;2.88;;
61291;SDS011;47165;42.664;23.368;2024-03-06T00:38:05;6.57;;;3.45;;
61291;SDS011;47165;42.664;23.368;2024-03-06T00:40:31;9.93;;;5.07;;
61291;SDS011;47165;42.664;23.368;2024-03-06T00:42:57;6.43;;;3.50;;
61291;SDS011;47165;42.664;23.368;2024-03-06T00:45:23;8.52;;;4.22;;
61291;SDS011;47165;42.664;23.368;2024-03-06T00:47:49;13.77;;;5.47;;
61291;SDS011;47165;42.664;23.368;2024-03-06T00:50:14;7.60;;;3.83;;
61291;SDS011;47165;42.664;23.368;2024-03-06T00:52:41;7.10;;;3.80;;
61291;SDS011;47165;42.664;23.368;2024-03-06T00:55:07;9.30;;;4.60;;
61291;SDS011;47165;42.664;23.368;2024-03-06T00:57:33;9.02;;;3.78;;
61291;SDS011;47165;42.664;23.368;2024-03-06T00:59:59;9.13;;;4.13;;
61291;SDS011;47165;42.664;23.368;2024-03-06T01:02:25;8.60;;;3.97;;
61291;SDS011;47165;42.664;23.368;2024-03-06T01:04:50;10.30;;;4.13;;
61291;SDS011;47165;42.664;23.368;2024-03-06T01:07:16;9.25;;;3.88;;
61291;SDS011;47165;42.664;23.368;2024-03-06T01:09:41;7.68;;;4.05;;
61291;SDS011;47165;42.664;23.368;2024-03-06T01:12:07;7.75;;;4.28;;
61291;SDS011;47165;42.664;23.368;2024-03-06T01:14:33;7.65;;;3.78;;
61291;SDS011;47165;42.664;23.368;2024-03-06T01:16:58;5.00;;;2.30;;
61291;SDS011;47165;42.664;23.368;2024-03-06T01:19:24;6.50;;;3.60;;
61291;SDS011;47165;42.664;23.368;2024-03-06T01:21:49;5.85;;;3.42;;
61291;SDS011;47165;42.664;23.368;2024-03-06T01:24:15;6.38;;;3.47;;
61291;SDS011;47165;42.664;23.368;2024-03-06T01:26:40;9.95;;;3.85;;
61291;SDS011;47165;42.664;23.368;2024-03-06T01:29:06;6.35;;;4.30;;
61291;SDS011;47165;42.664;23.368;2024-03-06T01:31:31;10.68;;;4.35;;
61291;SDS011;47165;42.664;23.368;2024-03-06T01:33:57;8.82;;;4.13;;
61291;SDS011;47165;42.664;23.368;2024-03-06T01:36:22;7.63;;;4.00;;
61291;SDS011;47165;42.664;23.368;2024-03-06T01:38:48;6.90;;;3.80;;
61291;SDS011;47165;42.664;23.368;2024-03-06T01:41:14;11.25;;;4.20;;
61291;SDS011;47165;42.664;23.368;2024-03-06T01:43:40;8.65;;;4.22;;
61291;SDS011;47165;42.664;23.368;2024-03-06T01:46:06;7.72;;;3.85;;
61291;SDS011;47165;42.664;23.368;2024-03-06T01:48:31;8.85;;;3.72;;
61291;SDS011;47165;42.664;23.368;2024-03-06T01:50:58;8.95;;;4.60;;
61291;SDS011;47165;42.664;23.368;2024-03-06T01:53:27;8.95;;;4.20;;
61291;SDS011;47165;42.664;23.368;2024-03-06T01:55:55;7.78;;;3.85;;
61291;SDS011;47165;42.664;23.368;2024-03-06T01:58:21;12.13;;;4.57;;
61291;SDS011;47165;42.664;23.368;2024-03-06T02:00:49;8.73;;;4.03;;
61291;SDS011;47165;42.664;23.368;2024-03-06T02:03:15;10.00;;;4.88;;
61291;SDS011;47165;42.664;23.368;2024-03-06T02:05:42;8.02;;;4.47;;
61291;SDS011;47165;42.664;23.368;2024-03-06T02:08:08;9.27;;;3.75;;
61291;SDS011;47165;42.664;23.368;2024-03-06T02:10:34;8.23;;;4.93;;
61291;SDS011;47165;42.664;23.368;2024-03-06T02:12:59;10.15;;;4.07;;
61291;SDS011;47165;42.664;23.368;2024-03-06T02:15:25;6.25;;;3.08;;
61291;SDS011;47165;42.664;23.368;2024-03-06T02:17:51;10.55;;;4.38;;
61291;SDS011;47165;42.664;23.368;2024-03-06T02:20:24;6.55;;;3.88;;
61291;SDS011;47165;42.664;23.368;2024-03-06T02:22:50;4.38;;;2.38;;
61291;SDS011;47165;42.664;23.368;2024-03-06T02:25:16;5.43;;;3.17;;
61291;SDS011;47165;42.664;23.368;2024-03-06T02:27:44;12.13;;;4.05;;
61291;SDS011;47165;42.664;23.368;2024-03-06T02:30:09;11.02;;;5.05;;
61291;SDS011;47165;42.664;23.368;2024-03-06T02:32:35;7.40;;;3.85;;
61291;SDS011;47165;42.664;23.368;2024-03-06T02:35:01;7.93;;;4.13;;
61291;SDS011;47165;42.664;23.368;2024-03-06T02:37:33;6.97;;;4.05;;
61291;SDS011;47165;42.664;23.368;2024-03-06T02:39:59;10.07;;;4.15;;
61291;SDS011;47165;42.664;23.368;2024-03-06T02:42:24;11.32;;;4.55;;
61291;SDS011;47165;42.664;23.368;2024-03-06T02:44:51;8.05;;;4.65;;
61291;SDS011;47165;42.664;23.368;2024-03-06T02:47:16;6.53;;;3.83;;
61291;SDS011;47165;42.664;23.368;2024-03-06T02:49:41;8.13;;;3.72;;
61291;SDS011;47165;42.664;23.368;2024-03-06T02:52:07;6.68;;;3.58;;
61291;SDS011;47165;42.664;23.368;2024-03-06T02:54:32;13.00;;;4.22;;
61291;SDS011;47165;42.664;23.368;2024-03-06T02:56:58;11.07;;;4.30;;
61291;SDS011;47165;42.664;23.368;2024-03-06T02:59:23;6.30;;;3.47;;
61291;SDS011;47165;42.664;23.368;2024-03-06T03:01:50;8.75;;;3.97;;
61291;SDS011;47165;42.664;23.368;2024-03-06T03:04:15;8.98;;;4.47;;
61291;SDS011;47165;42.664;23.368;2024-03-06T03:06:41;6.50;;;3.47;;
61291;SDS011;47165;42.664;23.368;2024-03-06T03:09:07;7.57;;;3.53;;
61291;SDS011;47165;42.664;23.368;2024-03-06T03:11:33;10.23;;;3.55;;
61291;SDS011;47165;42.664;23.368;2024-03-06T03:14:00;11.60;;;4.28;;
61291;SDS011;47165;42.664;23.368;2024-03-06T03:16:26;8.00;;;4.35;;
61291;SDS011;47165;42.664;23.368;2024-03-06T03:18:52;7.72;;;4.05;;
61291;SDS011;47165;42.664;23.368;2024-03-06T03:21:19;9.57;;;3.92;;
61291;SDS011;47165;42.664;23.368;2024-03-06T03:23:45;8.30;;;3.88;;
61291;SDS011;47165;42.664;23.368;2024-03-06T03:26:10;5.20;;;3.05;;
61291;SDS011;47165;42.664;23.368;2024-03-06T03:28:39;8.45;;;3.85;;
61291;SDS011;47165;42.664;23.368;2024-03-06T03:31:06;9.73;;;4.15;;
61291;SDS011;47165;42.664;23.368;2024-03-06T03:33:44;8.70;;;3.47;;
61291;SDS011;47165;42.664;23.368;2024-03-06T03:36:09;6.63;;;3.42;;
61291;SDS011;47165;42.664;23.368;2024-03-06T03:38:35;5.82;;;3.33;;
61291;SDS011;47165;42.664;23.368;2024-03-06T03:41:06;4.90;;;3.40;;
61291;SDS011;47165;42.664;23.368;2024-03-06T03:43:32;6.18;;;2.90;;
61291;SDS011;47165;42.664;23.368;2024-03-06T03:45:58;9.00;;;3.88;;
61291;SDS011;47165;42.664;23.368;2024-03-06T03:48:25;6.03;;;3.58;;
61291;SDS011;47165;42.664;23.368;2024-03-06T03:50:50;6.40;;;3.20;;
61291;SDS011;47165;42.664;23.368;2024-03-06T03:53:16;9.48;;;3.83;;
61291;SDS011;47165;42.664;23.368;2024-03-06T03:55:41;6.93;;;3.95;;
61291;SDS011;47165;42.664;23.368;2024-03-06T03:58:06;8.02;;;4.10;;
61291;SDS011;47165;42.664;23.368;2024-03-06T04:00:32;8.00;;;3.58;;
61291;SDS011;47165;42.664;23.368;2024-03-06T04:02:58;5.55;;;2.50;;
61291;SDS011;47165;42.664;23.368;2024-03-06T04:05:23;7.78;;;3.22;;
61291;SDS011;47165;42.664;23.368;2024-03-06T04:07:50;8.27;;;2.92;;
61291;SDS011;47165;42.664;23.368;2024-03-06T04:10:16;6.53;;;3.35;;
61291;SDS011;47165;42.664;23.368;2024-03-06T04:12:41;6.07;;;2.65;;
61291;SDS011;47165;42.664;23.368;2024-03-06T04:15:07;4.53;;;2.85;;
61291;SDS011;47165;42.664;23.368;2024-03-06T04:17:34;6.88;;;3.30;;
61291;SDS011;47165;42.664;23.368;2024-03-06T04:20:00;5.53;;;3.10;;
61291;SDS011;47165;42.664;23.368;2024-03-06T04:22:25;7.15;;;3.05;;
61291;SDS011;47165;42.664;23.368;2024-03-06T04:24:51;7.20;;;3.28;;
61291;SDS011;47165;42.664;23.368;2024-03-06T04:27:16;6.38;;;2.95;;
61291;SDS011;47165;42.664;23.368;2024-03-06T04:29:43;4.55;;;3.03;;
61291;SDS011;47165;42.664;23.368;2024-03-06T04:32:09;7.38;;;3.15;;
61291;SDS011;47165;42.664;23.368;2024-03-06T04:34:34;7.13;;;2.83;;
61291;SDS011;47165;42.664;23.368;2024-03-06T04:37:00;3.83;;;2.75;;
61291;SDS011;47165;42.664;23.368;2024-03-06T04:39:26;8.27;;;3.67;;
61291;SDS011;47165;42.664;23.368;2024-03-06T04:41:52;5.85;;;2.90;;
61291;SDS011;47165;42.664;23.368;2024-03-06T04:44:17;7.57;;;3.72;;
61291;SDS011;47165;42.664;23.368;2024-03-06T04:46:42;5.85;;;2.80;;
61291;SDS011;47165;42.664;23.368;2024-03-06T04:49:08;7.28;;;3.22;;
61291;SDS011;47165;42.664;23.368;2024-03-06T04:51:33;4.65;;;2.75;;
61291;SDS011;47165;42.664;23.368;2024-03-06T04:53:59;5.05;;;3.28;;
61291;SDS011;47165;42.664;23.368;2024-03-06T04:56:24;4.15;;;2.88;;
61291;SDS011;47165;42.664;23.368;2024-03-06T04:58:50;7.80;;;3.10;;
61291;SDS011;47165;42.664;23.368;2024-03-06T05:01:17;4.32;;;2.40;;
61291;SDS011;47165;42.664;23.368;2024-03-06T05:03:43;5.47;;;3.47;;
61291;SDS011;47165;42.664;23.368;2024-03-06T05:06:08;5.88;;;3.22;;
61291;SDS011;47165;42.664;23.368;2024-03-06T05:08:33;5.53;;;3.05;;
61291;SDS011;47165;42.664;23.368;2024-03-06T05:11:00;7.80;;;3.25;;
61291;SDS011;47165;42.664;23.368;2024-03-06T05:13:26;5.57;;;2.85;;
61291;SDS011;47165;42.664;23.368;2024-03-06T05:15:52;7.47;;;3.10;;
61291;SDS011;47165;42.664;23.368;2024-03-06T05:18:19;7.78;;;3.35;;
61291;SDS011;47165;42.664;23.368;2024-03-06T05:20:45;4.95;;;2.97;;
61291;SDS011;47165;42.664;23.368;2024-03-06T05:23:11;8.80;;;4.13;;
61291;SDS011;47165;42.664;23.368;2024-03-06T05:25:37;5.82;;;2.83;;
61291;SDS011;47165;42.664;23.368;2024-03-06T05:28:03;6.85;;;3.80;;
61291;SDS011;47165;42.664;23.368;2024-03-06T05:30:29;4.45;;;2.55;;
61291;SDS011;47165;42.664;23.368;2024-03-06T05:32:55;8.50;;;3.20;;
61291;SDS011;47165;42.664;23.368;2024-03-06T05:35:21;6.93;;;3.08;;
61291;SDS011;47165;42.664;23.368;2024-03-06T05:37:46;5.72;;;3.22;;
61291;SDS011;47165;42.664;23.368;2024-03-06T05:40:12;9.38;;;3.80;;
61291;SDS011;47165;42.664;23.368;2024-03-06T05:42:38;5.30;;;2.80;;
61291;SDS011;47165;42.664;23.368;2024-03-06T05:45:03;5.50;;;2.60;;
61291;SDS011;47165;42.664;23.368;2024-03-06T05:47:35;7.13;;;3.50;;
61291;SDS011;47165;42.664;23.368;2024-03-06T05:50:01;5.85;;;3.22;;
61291;SDS011;47165;42.664;23.368;2024-03-06T05:52:30;11.15;;;3.47;;
61291;SDS011;47165;42.664;23.368;2024-03-06T05:54:56;9.35;;;4.30;;
61291;SDS011;47165;42.664;23.368;2024-03-06T05:57:21;6.03;;;3.97;;
61291;SDS011;47165;42.664;23.368;2024-03-06T05:59:47;9.25;;;4.18;;
61291;SDS011;47165;42.664;23.368;2024-03-06T06:02:12;9.18;;;4.55;;
61291;SDS011;47165;42.664;23.368;2024-03-06T06:04:38;8.68;;;3.92;;
61291;SDS011;47165;42.664;23.368;2024-03-06T06:07:03;9.23;;;4.00;;
61291;SDS011;47165;42.664;23.368;2024-03-06T06:09:29;8.30;;;4.60;;
61291;SDS011;47165;42.664;23.368;2024-03-06T06:11:55;6.68;;;3.95;;
61291;SDS011;47165;42.664;23.368;2024-03-06T06:14:20;7.15;;;3.78;;
61291;SDS011;47165;42.664;23.368;2024-03-06T06:16:47;8.05;;;4.45;;
61291;SDS011;47165;42.664;23.368;2024-03-06T06:19:12;6.13;;;3.97;;
61291;SDS011;47165;42.664;23.368;2024-03-06T06:21:38;11.45;;;5.50;;
61291;SDS011;47165;42.664;23.368;2024-03-06T06:24:03;9.98;;;5.53;;
61291;SDS011;47165;42.664;23.368;2024-03-06T06:26:29;12.75;;;6.55;;
61291;SDS011;47165;42.664;23.368;2024-03-06T06:28:56;13.32;;;5.32;;
61291;SDS011;47165;42.664;23.368;2024-03-06T06:31:22;11.32;;;5.10;;
61291;SDS011;47165;42.664;23.368;2024-03-06T06:33:50;8.40;;;5.45;;
61291;SDS011;47165;42.664;23.368;2024-03-06T06:36:16;8.30;;;4.35;;
61291;SDS011;47165;42.664;23.368;2024-03-06T06:38:42;8.43;;;3.67;;
61291;SDS011;47165;42.664;23.368;2024-03-06T06:41:09;12.88;;;5.07;;
61291;SDS011;47165;42.664;23.368;2024-03-06T06:43:35;9.77;;;4.05;;
61291;SDS011;47165;42.664;23.368;2024-03-06T06:46:01;14.70;;;7.05;;
61291;SDS011;47165;42.664;23.368;2024-03-06T06:48:26;12.43;;;5.63;;
61291;SDS011;47165;42.664;23.368;2024-03-06T06:50:52;9.23;;;5.20;;
61291;SDS011;47165;42.664;23.368;2024-03-06T06:53:17;9.63;;;5.80;;
61291;SDS011;47165;42.664;23.368;2024-03-06T06:55:43;9.00;;;5.20;;
61291;SDS011;47165;42.664;23.368;2024-03-06T06:58:08;6.13;;;4.50;;
61291;SDS011;47165;42.664;23.368;2024-03-06T07:00:34;9.43;;;4.75;;
61291;SDS011;47165;42.664;23.368;2024-03-06T07:02:59;13.57;;;6.82;;
61291;SDS011;47165;42.664;23.368;2024-03-06T07:05:25;11.30;;;6.20;;
61291;SDS011;47165;42.664;23.368;2024-03-06T07:07:51;11.55;;;5.70;;
61291;SDS011;47165;42.664;23.368;2024-03-06T07:10:16;10.63;;;5.60;;
61291;SDS011;47165;42.664;23.368;2024-03-06T07:12:42;16.20;;;6.97;;
61291;SDS011;47165;42.664;23.368;2024-03-06T07:15:07;12.80;;;8.10;;
61291;SDS011;47165;42.664;23.368;2024-03-06T07:17:33;13.50;;;5.50;;
61291;SDS011;47165;42.664;23.368;2024-03-06T07:19:58;10.82;;;5.22;;
61291;SDS011;47165;42.664;23.368;2024-03-06T07:22:24;7.57;;;4.70;;
61291;SDS011;47165;42.664;23.368;2024-03-06T07:24:49;10.02;;;5.05;;
61291;SDS011;47165;42.664;23.368;2024-03-06T07:27:15;10.25;;;4.75;;
61291;SDS011;47165;42.664;23.368;2024-03-06T07:29:41;14.15;;;6.13;;
61291;SDS011;47165;42.664;23.368;2024-03-06T07:32:06;7.40;;;4.40;;
61291;SDS011;47165;42.664;23.368;2024-03-06T07:34:32;12.30;;;4.90;;
61291;SDS011;47165;42.664;23.368;2024-03-06T07:36:58;12.23;;;6.40;;
61291;SDS011;47165;42.664;23.368;2024-03-06T07:39:24;10.70;;;5.18;;
61291;SDS011;47165;42.664;23.368;2024-03-06T07:41:50;16.90;;;7.47;;
61291;SDS011;47165;42.664;23.368;2024-03-06T07:44:16;13.18;;;6.55;;
61291;SDS011;47165;42.664;23.368;2024-03-06T07:46:42;12.55;;;6.03;;
61291;SDS011;47165;42.664;23.368;2024-03-06T07:49:07;12.95;;;6.40;;
61291;SDS011;47165;42.664;23.368;2024-03-06T07:51:33;13.70;;;5.82;;
61291;SDS011;47165;42.664;23.368;2024-03-06T07:54:00;19.63;;;8.77;;
61291;SDS011;47165;42.664;23.368;2024-03-06T07:56:27;8.02;;;4.60;;
61291;SDS011;47165;42.664;23.368;2024-03-06T07:58:53;14.23;;;7.43;;
61291;SDS011;47165;42.664;23.368;2024-03-06T08:01:19;13.57;;;7.10;;
61291;SDS011;47165;42.664;23.368;2024-03-06T08:03:46;13.70;;;7.55;;
61291;SDS011;47165;42.664;23.368;2024-03-06T08:06:11;15.32;;;7.15;;
61291;SDS011;47165;42.664;23.368;2024-03-06T08:08:40;10.98;;;5.93;;
61291;SDS011;47165;42.664;23.368;2024-03-06T08:11:06;16.67;;;8.60;;
61291;SDS011;47165;42.664;23.368;2024-03-06T08:13:31;17.88;;;9.20;;
61291;SDS011;47165;42.664;23.368;2024-03-06T08:15:57;19.50;;;9.63;;
61291;SDS011;47165;42.664;23.368;2024-03-06T08:18:22;13.55;;;6.93;;
61291;SDS011;47165;42.664;23.368;2024-03-06T08:20:48;12.45;;;6.75;;
61291;SDS011;47165;42.664;23.368;2024-03-06T08:23:13;20.10;;;10.23;;
61291;SDS011;47165;42.664;23.368;2024-03-06T08:25:39;14.10;;;8.63;;
61291;SDS011;47165;42.664;23.368;2024-03-06T08:28:04;19.58;;;9.02;;
61291;SDS011;47165;42.664;23.368;2024-03-06T08:30:30;22.35;;;10.15;;
61291;SDS011;47165;42.664;23.368;2024-03-06T08:32:56;17.35;;;9.57;;
61291;SDS011;47165;42.664;23.368;2024-03-06T08:35:22;15.98;;;8.30;;
61291;SDS011;47165;42.664;23.368;2024-03-06T08:37:49;18.02;;;8.88;;
61291;SDS011;47165;42.664;23.368;2024-03-06T08:40:15;17.35;;;7.88;;
61291;SDS011;47165;42.664;23.368;2024-03-06T08:42:51;13.55;;;6.85;;
61291;SDS011;47165;42.664;23.368;2024-03-06T08:45:17;24.60;;;10.30;;
61291;SDS011;47165;42.664;23.368;2024-03-06T08:47:44;18.80;;;9.40;;
61291;SDS011;47165;42.664;23.368;2024-03-06T08:50:10;18.35;;;8.48;;
61291;SDS011;47165;42.664;23.368;2024-03-06T08:52:36;18.98;;;7.63;;
61291;SDS011;47165;42.664;23.368;2024-03-06T08:55:02;20.08;;;8.80;;
61291;SDS011;47165;42.664;23.368;2024-03-06T08:57:32;24.63;;;12.23;;
61291;SDS011;47165;42.664;23.368;2024-03-06T08:59:58;17.52;;;7.85;;
61291;SDS011;47165;42.664;23.368;2024-03-06T09:02:23;13.65;;;7.13;;
61291;SDS011;47165;42.664;23.368;2024-03-06T09:04:49;20.88;;;10.45;;
61291;SDS011;47165;42.664;23.368;2024-03-06T09:07:17;16.67;;;6.20;;
61291;SDS011;47165;42.664;23.368;2024-03-06T09:09:42;21.98;;;9.52;;
61291;SDS011;47165;42.664;23.368;2024-03-06T09:12:08;19.55;;;10.90;;
61291;SDS011;47165;42.664;23.368;2024-03-06T09:14:39;18.55;;;7.90;;
61291;SDS011;47165;42.664;23.368;2024-03-06T09:17:06;17.10;;;8.57;;
61291;SDS011;47165;42.664;23.368;2024-03-06T09:19:34;17.02;;;7.53;;
61291;SDS011;47165;42.664;23.368;2024-03-06T09:22:00;12.40;;;6.68;;
61291;SDS011;47165;42.664;23.368;2024-03-06T09:24:25;10.68;;;5.97;;
61291;SDS011;47165;42.664;23.368;2024-03-06T09:26:51;15.77;;;8.25;;
61291;SDS011;47165;42.664;23.368;2024-03-06T09:29:17;10.82;;;5.35;;
61291;SDS011;47165;42.664;23.368;2024-03-06T09:31:43;10.68;;;5.82;;
61291;SDS011;47165;42.664;23.368;2024-03-06T09:34:11;8.48;;;4.82;;
61291;SDS011;47165;42.664;23.368;2024-03-06T09:36:37;11.25;;;5.45;;
61291;SDS011;47165;42.664;23.368;2024-03-06T09:39:03;13.70;;;7.53;;
61291;SDS011;47165;42.664;23.368;2024-03-06T09:41:29;11.32;;;6.30;;
61291;SDS011;47165;42.664;23.368;2024-03-06T09:43:55;13.15;;;4.93;;
61291;SDS011;47165;42.664;23.368;2024-03-06T09:46:21;16.35;;;7.13;;
61291;SDS011;47165;42.664;23.368;2024-03-06T09:48:47;13.35;;;7.30;;
61291;SDS011;47165;42.664;23.368;2024-03-06T09:51:16;10.75;;;4.40;;
61291;SDS011;47165;42.664;23.368;2024-03-06T09:53:42;15.68;;;7.50;;
61291;SDS011;47165;42.664;23.368;2024-03-06T09:56:10;18.13;;;8.00;;
61291;SDS011;47165;42.664;23.368;2024-03-06T09:58:36;14.60;;;7.15;;
61291;SDS011;47165;42.664;23.368;2024-03-06T10:01:01;9.90;;;5.82;;
61291;SDS011;47165;42.664;23.368;2024-03-06T10:03:28;9.55;;;6.13;;
61291;SDS011;47165;42.664;23.368;2024-03-06T10:05:55;9.32;;;5.38;;
61291;SDS011;47165;42.664;23.368;2024-03-06T10:08:21;6.88;;;3.88;;
61291;SDS011;47165;42.664;23.368;2024-03-06T10:10:48;9.65;;;5.72;;
61291;SDS011;47165;42.664;23.368;2024-03-06T10:13:17;8.88;;;4.22;;
61291;SDS011;47165;42.664;23.368;2024-03-06T10:15:57;25.15;;;6.40;;
61291;SDS011;47165;42.664;23.368;2024-03-06T10:18:23;10.27;;;4.50;;
61291;SDS011;47165;42.664;23.368;2024-03-06T10:20:52;12.45;;;5.35;;
61291;SDS011;47165;42.664;23.368;2024-03-06T10:23:18;7.25;;;3.88;;
61291;SDS011;47165;42.664;23.368;2024-03-06T10:25:43;13.07;;;4.45;;
61291;SDS011;47165;42.664;23.368;2024-03-06T10:28:15;12.05;;;5.38;;
61291;SDS011;47165;42.664;23.368;2024-03-06T10:30:42;11.20;;;5.05;;
61291;SDS011;47165;42.664;23.368;2024-03-06T10:33:08;13.57;;;5.03;;
61291;SDS011;47165;42.664;23.368;2024-03-06T10:35:34;8.80;;;4.10;;
61291;SDS011;47165;42.664;23.368;2024-03-06T10:38:04;7.60;;;4.20;;
61291;SDS011;47165;42.664;23.368;2024-03-06T10:40:31;12.60;;;5.40;;
61291;SDS011;47165;42.664;23.368;2024-03-06T10:43:01;6.97;;;3.30;;
61291;SDS011;47165;42.664;23.368;2024-03-06T10:45:49;9.70;;;3.65;;
61291;SDS011;47165;42.664;23.368;2024-03-06T10:48:15;9.63;;;3.85;;
61291;SDS011;47165;42.664;23.368;2024-03-06T10:50:42;5.47;;;4.05;;
61291;SDS011;47165;42.664;23.368;2024-03-06T10:53:18;11.95;;;4.03;;
61291;SDS011;47165;42.664;23.368;2024-03-06T10:55:44;7.65;;;4.38;;
61291;SDS011;47165;42.664;23.368;2024-03-06T10:58:10;8.63;;;4.97;;
61291;SDS011;47165;42.664;23.368;2024-03-06T11:00:40;9.68;;;3.50;;
61291;SDS011;47165;42.664;23.368;2024-03-06T11:03:08;8.82;;;4.78;;
61291;SDS011;47165;42.664;23.368;2024-03-06T11:05:40;6.43;;;3.90;;
61291;SDS011;47165;42.664;23.368;2024-03-06T11:10:38;7.88;;;4.63;;
61291;SDS011;47165;42.664;23.368;2024-03-06T11:15:45;7.65;;;4.05;;
61291;SDS011;47165;42.664;23.368;2024-03-06T11:23:27;7.38;;;3.42;;
61291;SDS011;47165;42.664;23.368;2024-03-06T11:28:21;13.10;;;4.90;;
61291;SDS011;47165;42.664;23.368;2024-03-06T11:30:56;9.43;;;5.30;;
61291;SDS011;47165;42.664;23.368;2024-03-06T11:38:59;7.25;;;3.65;;
61291;SDS011;47165;42.664;23.368;2024-03-06T11:41:27;8.95;;;4.90;;
61291;SDS011;47165;42.664;23.368;2024-03-06T11:43:54;8.50;;;3.22;;
61291;SDS011;47165;42.664;23.368;2024-03-06T11:46:21;8.60;;;4.50;;
61291;SDS011;47165;42.664;23.368;2024-03-06T11:48:51;9.35;;;4.45;;
61291;SDS011;47165;42.664;23.368;2024-03-06T11:51:17;9.88;;;4.88;;
61291;SDS011;47165;42.664;23.368;2024-03-06T11:53:43;9.05;;;4.38;;
61291;SDS011;47165;42.664;23.368;2024-03-06T11:56:09;8.98;;;4.05;;
61291;SDS011;47165;42.664;23.368;2024-03-06T11:58:35;10.30;;;4.80;;
61291;SDS011;47165;42.664;23.368;2024-03-06T12:01:00;9.95;;;4.95;;
61291;SDS011;47165;42.664;23.368;2024-03-06T12:03:26;11.05;;;5.55;;
61291;SDS011;47165;42.664;23.368;2024-03-06T12:05:52;9.07;;;4.45;;
61291;SDS011;47165;42.664;23.368;2024-03-06T12:08:18;9.68;;;4.53;;
61291;SDS011;47165;42.664;23.368;2024-03-06T12:10:45;7.82;;;4.15;;
61291;SDS011;47165;42.664;23.368;2024-03-06T12:13:11;8.20;;;4.10;;
61291;SDS011;47165;42.664;23.368;2024-03-06T12:15:37;8.88;;;4.68;;
61291;SDS011;47165;42.664;23.368;2024-03-06T12:18:02;7.47;;;4.53;;
61291;SDS011;47165;42.664;23.368;2024-03-06T12:20:28;7.63;;;4.43;;
61291;SDS011;47165;42.664;23.368;2024-03-06T12:22:53;7.13;;;3.75;;
61291;SDS011;47165;42.664;23.368;2024-03-06T12:25:25;6.55;;;4.43;;
61291;SDS011;47165;42.664;23.368;2024-03-06T12:27:51;10.02;;;4.80;;
61291;SDS011;47165;42.664;23.368;2024-03-06T12:30:19;7.00;;;4.47;;
61291;SDS011;47165;42.664;23.368;2024-03-06T12:32:56;8.70;;;4.50;;
61291;SDS011;47165;42.664;23.368;2024-03-06T12:35:25;8.90;;;4.28;;
61291;SDS011;47165;42.664;23.368;2024-03-06T12:37:52;6.88;;;3.75;;
61291;SDS011;47165;42.664;23.368;2024-03-06T12:40:18;5.57;;;3.15;;
61291;SDS011;47165;42.664;23.368;2024-03-06T12:42:44;7.13;;;4.45;;
61291;SDS011;47165;42.664;23.368;2024-03-06T12:45:11;9.75;;;4.53;;
61291;SDS011;47165;42.664;23.368;2024-03-06T12:47:41;7.07;;;4.57;;
61291;SDS011;47165;42.664;23.368;2024-03-06T12:50:07;8.95;;;4.35;;
61291;SDS011;47165;42.664;23.368;2024-03-06T12:52:34;8.98;;;3.95;;
61291;SDS011;47165;42.664;23.368;2024-03-06T12:55:00;7.22;;;4.15;;
61291;SDS011;47165;42.664;23.368;2024-03-06T12:57:26;8.85;;;5.20;;
61291;SDS011;47165;42.664;23.368;2024-03-06T12:59:52;7.95;;;4.05;;
61291;SDS011;47165;42.664;23.368;2024-03-06T13:02:18;8.38;;;4.82;;
61291;SDS011;47165;42.664;23.368;2024-03-06T13:04:43;8.45;;;4.45;;
61291;SDS011;47165;42.664;23.368;2024-03-06T13:07:09;7.65;;;4.18;;
61291;SDS011;47165;42.664;23.368;2024-03-06T13:09:36;10.00;;;4.97;;
61291;SDS011;47165;42.664;23.368;2024-03-06T13:12:01;6.28;;;4.03;;
61291;SDS011;47165;42.664;23.368;2024-03-06T13:14:27;7.10;;;3.50;;
61291;SDS011;47165;42.664;23.368;2024-03-06T13:16:52;6.80;;;2.92;;
61291;SDS011;47165;42.664;23.368;2024-03-06T13:19:18;4.60;;;2.67;;
61291;SDS011;47165;42.664;23.368;2024-03-06T13:21:44;5.82;;;3.50;;
61291;SDS011;47165;42.664;23.368;2024-03-06T13:24:09;4.85;;;3.25;;
61291;SDS011;47165;42.664;23.368;2024-03-06T13:26:35;3.95;;;2.97;;
61291;SDS011;47165;42.664;23.368;2024-03-06T13:29:03;8.60;;;4.13;;
61291;SDS011;47165;42.664;23.368;2024-03-06T13:31:28;6.28;;;3.30;;
61291;SDS011;47165;42.664;23.368;2024-03-06T13:33:55;6.15;;;2.75;;
61291;SDS011;47165;42.664;23.368;2024-03-06T13:36:20;4.75;;;2.50;;
61291;SDS011;47165;42.664;23.368;2024-03-06T13:38:47;5.57;;;3.30;;
61291;SDS011;47165;42.664;23.368;2024-03-06T13:41:12;6.47;;;3.10;;
61291;SDS011;47165;42.664;23.368;2024-03-06T13:43:38;4.55;;;3.42;;
61291;SDS011;47165;42.664;23.368;2024-03-06T13:46:03;4.88;;;2.88;;
61291;SDS011;47165;42.664;23.368;2024-03-06T13:48:29;3.05;;;2.70;;
61291;SDS011;47165;42.664;23.368;2024-03-06T13:50:55;4.03;;;2.40;;
61291;SDS011;47165;42.664;23.368;2024-03-06T13:53:20;4.72;;;3.10;;
61291;SDS011;47165;42.664;23.368;2024-03-06T13:55:46;4.22;;;3.00;;
61291;SDS011;47165;42.664;23.368;2024-03-06T13:58:12;6.70;;;2.35;;
61291;SDS011;47165;42.664;23.368;2024-03-06T14:00:37;4.38;;;2.40;;
61291;SDS011;47165;42.664;23.368;2024-03-06T14:03:03;5.20;;;3.30;;
61291;SDS011;47165;42.664;23.368;2024-03-06T14:05:28;5.57;;;3.13;;
61291;SDS011;47165;42.664;23.368;2024-03-06T14:07:54;5.45;;;2.88;;
61291;SDS011;47165;42.664;23.368;2024-03-06T14:10:20;4.63;;;2.80;;
61291;SDS011;47165;42.664;23.368;2024-03-06T14:12:49;5.28;;;2.95;;
61291;SDS011;47165;42.664;23.368;2024-03-06T14:15:19;7.93;;;3.00;;
61291;SDS011;47165;42.664;23.368;2024-03-06T14:17:45;8.77;;;3.40;;
61291;SDS011;47165;42.664;23.368;2024-03-06T14:20:11;8.25;;;3.20;;
61291;SDS011;47165;42.664;23.368;2024-03-06T14:22:41;3.78;;;2.85;;
61291;SDS011;47165;42.664;23.368;2024-03-06T14:25:07;4.80;;;3.28;;
61291;SDS011;47165;42.664;23.368;2024-03-06T14:27:33;6.13;;;3.08;;
61291;SDS011;47165;42.664;23.368;2024-03-06T14:30:00;5.05;;;2.92;;
61291;SDS011;47165;42.664;23.368;2024-03-06T14:32:27;6.85;;;3.78;;
61291;SDS011;47165;42.664;23.368;2024-03-06T14:34:53;5.85;;;3.38;;
61291;SDS011;47165;42.664;23.368;2024-03-06T14:37:18;5.97;;;3.80;;
61291;SDS011;47165;42.664;23.368;2024-03-06T14:39:43;4.18;;;3.17;;
61291;SDS011;47165;42.664;23.368;2024-03-06T14:42:09;5.00;;;2.92;;
61291;SDS011;47165;42.664;23.368;2024-03-06T14:44:35;7.18;;;3.47;;